createdAt,value
2023-04-04T00:02:15.491Z,102325.38
2023-04-04T00:04:43.298Z,102328.06
2023-04-04T00:07:10.906Z,102326.25
2023-04-04T00:09:39.857Z,102330.66
2023-04-04T00:12:07.511Z,102334.19
2023-04-04T00:14:35.286Z,102333.38
2023-04-04T00:17:03.064Z,102333.50
2023-04-04T00:19:30.665Z,102329.28
2023-04-04T00:21:58.252Z,102328.59
2023-04-04T00:24:26.616Z,102329.59
2023-04-04T00:26:55.571Z,102329.72
2023-04-04T00:29:23.135Z,102328.22
2023-04-04T00:31:50.872Z,102332.75
2023-04-04T00:34:18.554Z,102327.66
2023-04-04T00:36:46.348Z,102327.72
2023-04-04T00:39:14.183Z,102333.97
2023-04-04T00:41:41.905Z,102325.34
2023-04-04T00:44:12.745Z,102332.38
2023-04-04T00:46:41.232Z,102329.97
2023-04-04T00:49:08.823Z,102330.09
2023-04-04T00:51:36.700Z,102333.59
2023-04-04T00:54:04.768Z,102331.09
2023-04-04T00:56:33.528Z,102328.59
2023-04-04T00:59:01.951Z,102320.88
2023-04-04T01:01:31.646Z,102320.88
2023-04-04T01:03:59.426Z,102314.94
2023-04-04T01:06:30.444Z,102316.84
2023-04-04T01:08:58.922Z,102321.25
2023-04-04T01:11:27.556Z,102317.03
2023-04-04T01:13:55.846Z,102318.84
2023-04-04T01:16:24.213Z,102318.97
2023-04-04T01:18:55.773Z,102316.47
2023-04-04T01:21:25.033Z,102322.59
2023-04-04T01:24:00.111Z,102317.34
2023-04-04T01:26:34.363Z,102315.75
2023-04-04T01:29:03.952Z,102319.19
2023-04-04T01:31:36.605Z,102316.69
2023-04-04T01:34:13.120Z,102314.97
2023-04-04T01:36:49.377Z,102305.41
2023-04-04T01:39:25.798Z,102316.78
2023-04-04T01:41:57.700Z,102304.50
2023-04-04T01:44:26.520Z,102305.50
2023-04-04T01:46:55.075Z,102295.97
2023-04-04T01:49:23.492Z,102298.69
2023-04-04T01:51:52.761Z,102298.91
2023-04-04T01:54:22.421Z,102300.72
2023-04-04T01:56:50.062Z,102292.88
2023-04-04T01:59:19.061Z,102294.66
2023-04-04T02:01:46.823Z,102296.50
2023-04-04T02:04:15.278Z,102291.38
2023-04-04T02:06:42.998Z,102286.94
2023-04-04T02:09:10.660Z,102291.38
2023-04-04T02:11:39.064Z,102282.63
2023-04-04T02:14:06.780Z,102283.53
2023-04-04T02:16:35.730Z,102282.81
2023-04-04T02:19:03.871Z,102284.53
2023-04-04T02:21:36.607Z,102284.53
2023-04-04T02:24:04.378Z,102287.25
2023-04-04T02:26:32.010Z,102278.53
2023-04-04T02:28:59.679Z,102273.28
2023-04-04T02:31:27.368Z,102276.69
2023-04-04T02:33:56.558Z,102266.25
2023-04-04T02:36:24.598Z,102269.75
2023-04-04T02:38:53.888Z,102274.19
2023-04-04T02:41:24.528Z,102273.28
2023-04-04T02:43:52.398Z,102262.75
2023-04-04T02:46:21.965Z,102274.09
2023-04-04T02:48:57.468Z,102273.19
2023-04-04T02:51:25.655Z,102260.94
2023-04-04T02:53:53.344Z,102266.25
2023-04-04T02:56:26.653Z,102260.13
2023-04-04T02:58:54.608Z,102258.53
2023-04-04T03:01:22.306Z,102255.91
2023-04-04T03:03:50.205Z,102257.53
2023-04-04T03:06:19.262Z,102254.91
2023-04-04T03:08:49.025Z,102247.97
2023-04-04T03:11:18.560Z,102240.13
2023-04-04T03:13:46.490Z,102239.34
2023-04-04T03:16:15.395Z,102235.81
2023-04-04T03:18:48.107Z,102230.47
2023-04-04T03:21:19.234Z,102223.47
2023-04-04T03:23:46.858Z,102222.38
2023-04-04T03:26:15.331Z,102219.66
2023-04-04T03:28:42.969Z,102223.88
2023-04-04T03:31:12.170Z,102223.78
2023-04-04T03:33:43.039Z,102209.63
2023-04-04T03:36:12.044Z,102209.41
2023-04-04T03:38:41.338Z,102216.13
2023-04-04T03:41:10.607Z,102217.53
2023-04-04T03:43:38.245Z,102215.50
2023-04-04T03:46:07.178Z,102207.41
2023-04-04T03:48:35.361Z,102209.69
2023-04-04T03:51:05.760Z,102208.38
2023-04-04T03:53:33.519Z,102209.00
2023-04-04T03:56:02.484Z,102203.44
2023-04-04T03:58:30.865Z,102198.72
2023-04-04T04:00:58.515Z,102199.19
2023-04-04T04:03:29.927Z,102205.03
2023-04-04T04:05:57.552Z,102213.34
2023-04-04T04:08:25.443Z,102209.53
2023-04-04T04:12:51.227Z,102204.47
2023-04-04T04:15:21.760Z,102208.56
2023-04-04T04:17:50.140Z,102202.94
2023-04-04T04:20:23.467Z,102211.31
2023-04-04T04:22:54.060Z,102209.22
2023-04-04T04:25:26.682Z,102204.59
2023-04-04T04:28:08.852Z,102210.25
2023-04-04T04:30:47.029Z,102208.34
2023-04-04T04:33:31.854Z,102210.75
2023-04-04T04:36:15.957Z,102212.13
2023-04-04T04:38:52.405Z,102211.78
2023-04-04T04:41:20.514Z,102215.00
2023-04-04T04:44:01.995Z,102214.78
2023-04-04T04:46:31.971Z,102210.25
2023-04-04T04:49:06.550Z,102206.44
2023-04-04T04:51:34.604Z,102209.69
2023-04-04T04:54:04.817Z,102212.09
2023-04-04T04:56:33.412Z,102208.47
2023-04-04T04:59:12.987Z,102210.84
2023-04-04T05:01:44.336Z,102212.34
2023-04-04T05:04:12.237Z,102213.94
2023-04-04T05:06:49.157Z,102212.81
2023-04-04T05:09:17.317Z,102211.00
2023-04-04T05:11:45.086Z,102215.06
2023-04-04T05:14:15.320Z,102205.47
2023-04-04T05:16:52.440Z,102221.88
2023-04-04T05:19:20.336Z,102222.66
2023-04-04T05:21:54.048Z,102231.28
2023-04-04T05:24:42.954Z,102234.78
2023-04-04T05:27:13.923Z,102232.06
2023-04-04T05:29:48.781Z,102236.50
2023-04-04T05:32:17.145Z,102238.28
2023-04-04T05:34:53.309Z,102247.03
2023-04-04T05:37:22.344Z,102246.22
2023-04-04T05:39:51.191Z,102247.22
2023-04-04T05:42:19.485Z,102249.06
2023-04-04T05:45:17.238Z,102256.19
2023-04-04T05:47:45.001Z,102252.78
2023-04-04T05:50:13.533Z,102253.78
2023-04-04T05:52:41.337Z,102255.72
2023-04-04T05:55:13.467Z,102247.31
2023-04-04T05:57:48.465Z,102253.56
2023-04-04T06:00:21.184Z,102266.00
2023-04-04T06:03:00.185Z,102261.81
2023-04-04T06:05:28.273Z,102263.75
2023-04-04T06:07:56.061Z,102264.97
2023-04-04T06:10:24.011Z,102270.38
2023-04-04T06:12:53.039Z,102265.28
2023-04-04T06:15:22.375Z,102263.81
2023-04-04T06:17:50.164Z,102268.09
2023-04-04T06:20:19.211Z,102263.88
2023-04-04T06:22:47.280Z,102268.44
2023-04-04T06:25:19.635Z,102271.25
2023-04-04T06:27:48.563Z,102273.16
2023-04-04T06:30:18.479Z,102273.28
2023-04-04T06:32:52.604Z,102276.09
2023-04-04T06:35:23.492Z,102273.72
2023-04-04T06:38:02.808Z,102283.56
2023-04-04T06:40:31.217Z,102273.22
2023-04-04T06:42:59.533Z,102276.06
2023-04-04T06:45:33.715Z,102283.19
2023-04-04T06:48:03.902Z,102275.56
2023-04-04T06:50:34.595Z,102276.56
2023-04-04T06:53:08.498Z,102274.91
2023-04-04T06:55:38.928Z,102276.81
2023-04-04T06:58:40.366Z,102277.13
2023-04-04T07:01:08.590Z,102274.63
2023-04-04T07:03:37.932Z,102274.91
2023-04-04T07:06:19.509Z,102276.03
2023-04-04T07:08:47.593Z,102280.69
2023-04-04T07:11:17.674Z,102275.78
2023-04-04T07:13:45.482Z,102274.28
2023-04-04T07:16:14.805Z,102275.50
2023-04-04T07:18:45.051Z,102269.78
2023-04-04T07:21:13.504Z,102265.91
2023-04-04T07:23:41.216Z,102266.34
2023-04-04T07:26:08.969Z,102257.09
2023-04-04T07:28:36.905Z,102259.88
2023-04-04T07:31:04.609Z,102250.66
2023-04-04T07:33:32.985Z,102247.69
2023-04-04T07:36:03.512Z,102254.19
2023-04-04T07:38:31.238Z,102250.16
2023-04-04T07:40:58.892Z,102247.06
2023-04-04T07:43:27.762Z,102240.44
2023-04-04T07:45:55.945Z,102252.31
2023-04-04T07:48:23.618Z,102256.13
2023-04-04T07:50:51.230Z,102261.81
2023-04-04T07:53:20.264Z,102253.56
2023-04-04T07:55:48.087Z,102259.41
2023-04-04T07:58:16.270Z,102253.84
2023-04-04T08:00:44.167Z,102255.41
2023-04-04T08:03:12.337Z,102255.13
2023-04-04T08:05:40.477Z,102250.56
2023-04-04T08:08:08.108Z,102248.50
2023-04-04T08:10:37.527Z,102252.06
2023-04-04T08:13:05.869Z,102243.44
2023-04-04T08:15:33.605Z,102250.31
2023-04-04T08:18:01.587Z,102250.34
2023-04-04T08:20:29.713Z,102247.00
2023-04-04T08:22:58.656Z,102232.28
2023-04-04T08:25:27.125Z,102241.00
2023-04-04T08:27:56.462Z,102249.19
2023-04-04T08:30:24.665Z,102239.75
2023-04-04T08:32:52.348Z,102240.84
2023-04-04T08:35:20.061Z,102249.25
2023-04-04T08:37:48.506Z,102248.59
2023-04-04T08:40:17.569Z,102247.03
2023-04-04T08:42:48.087Z,102235.91
2023-04-04T08:45:19.120Z,102240.63
2023-04-04T08:47:48.313Z,102246.19
2023-04-04T08:50:17.061Z,102234.31
2023-04-04T08:52:46.249Z,102233.53
2023-04-04T08:55:15.382Z,102227.72
2023-04-04T08:57:43.434Z,102233.94
2023-04-04T09:00:19.914Z,102223.66
2023-04-04T09:02:54.059Z,102229.34
2023-04-04T09:05:22.483Z,102231.53
2023-04-04T09:07:51.726Z,102220.81
2023-04-04T09:10:19.437Z,102224.00
2023-04-04T09:12:48.473Z,102216.47
2023-04-04T09:15:16.616Z,102214.03
2023-04-04T09:17:44.309Z,102224.56
2023-04-04T09:20:41.940Z,102225.03
2023-04-04T09:23:12.032Z,102227.94
2023-04-04T09:25:56.303Z,102229.16
2023-04-04T09:28:30.981Z,102230.22
2023-04-04T09:31:01.914Z,102225.97
2023-04-04T09:33:30.106Z,102231.19
2023-04-04T09:36:02.948Z,102226.03
2023-04-04T09:38:32.298Z,102228.59
2023-04-04T09:41:00.398Z,102224.88
2023-04-04T09:43:30.726Z,102231.81
2023-04-04T09:45:59.791Z,102228.19
2023-04-04T09:48:28.994Z,102235.94
2023-04-04T09:50:59.824Z,102228.97
2023-04-04T09:53:27.934Z,102219.47
2023-04-04T09:55:57.012Z,102215.81
2023-04-04T09:58:26.971Z,102216.09
2023-04-04T10:00:56.634Z,102208.41
2023-04-04T10:03:25.444Z,102208.56
2023-04-04T10:05:58.308Z,102211.19
2023-04-04T10:08:29.241Z,102210.22
2023-04-04T10:11:11.195Z,102212.00
2023-04-04T10:13:42.252Z,102203.72
2023-04-04T10:16:11.942Z,102205.13
2023-04-04T10:18:40.777Z,102208.31
2023-04-04T10:23:43.346Z,102208.88
2023-04-04T10:26:12.884Z,102208.69
2023-04-04T10:28:42.452Z,102201.09
2023-04-04T10:31:18.276Z,102200.75
2023-04-04T10:33:53.343Z,102194.19
2023-04-04T10:36:23.918Z,102192.91
2023-04-04T10:39:04.823Z,102197.56
2023-04-04T10:41:33.982Z,102199.63
2023-04-04T10:44:10.701Z,102194.50
2023-04-04T10:46:42.955Z,102195.66
2023-04-04T10:49:11.777Z,102187.94
2023-04-04T10:51:52.940Z,102188.16
2023-04-04T10:54:26.334Z,102184.78
2023-04-04T10:56:54.735Z,102194.59
2023-04-04T10:59:22.697Z,102187.69
2023-04-04T11:01:55.610Z,102188.50
2023-04-04T11:04:32.025Z,102184.69
2023-04-04T11:07:13.917Z,102186.94
2023-04-04T11:09:56.407Z,102189.19
2023-04-04T11:12:34.095Z,102178.41
2023-04-04T11:15:10.858Z,102173.41
2023-04-04T11:17:43.616Z,102179.06
2023-04-04T11:20:11.854Z,102170.34
2023-04-04T11:22:42.812Z,102168.78
2023-04-04T11:25:34.946Z,102165.94
2023-04-04T11:28:17.045Z,102157.69
2023-04-04T11:30:48.771Z,102160.66
2023-04-04T11:33:33.858Z,102151.03
2023-04-04T11:36:08.411Z,102149.47
2023-04-04T11:38:36.795Z,102152.34
2023-04-04T11:41:07.942Z,102147.28
2023-04-04T11:43:36.875Z,102140.19
2023-04-04T11:46:10.230Z,102132.09
2023-04-04T11:48:39.914Z,102131.31
2023-04-04T11:51:09.377Z,102127.84
2023-04-04T11:53:37.032Z,102123.53
2023-04-04T11:56:07.392Z,102111.22
2023-04-04T11:58:37.066Z,102115.78
2023-04-04T12:01:06.032Z,102118.59
2023-04-04T12:03:35.062Z,102101.69
2023-04-04T12:06:03.209Z,102111.53
2023-04-04T12:08:33.709Z,102110.63
2023-04-04T12:11:09.454Z,102106.16
2023-04-04T12:13:43.460Z,102105.25
2023-04-04T12:16:11.647Z,102102.59
2023-04-04T12:18:40.782Z,102093.69
2023-04-04T12:21:08.582Z,102087.47
2023-04-04T12:23:38.175Z,102092.81
2023-04-04T12:26:08.089Z,102085.66
2023-04-04T12:28:39.557Z,102082.97
2023-04-04T12:31:08.158Z,102085.63
2023-04-04T12:33:36.988Z,102083.81
2023-04-04T12:36:06.606Z,102082.06
2023-04-04T12:38:35.175Z,102065.06
2023-04-04T12:41:03.866Z,102069.56
2023-04-04T12:43:34.491Z,102062.41
2023-04-04T12:46:04.747Z,102060.59
2023-04-04T12:48:34.259Z,102056.13
2023-04-04T12:51:05.811Z,102053.38
2023-04-04T12:53:36.576Z,102040.88
2023-04-04T12:56:12.493Z,102043.56
2023-04-04T12:58:48.054Z,102030.97
2023-04-04T13:01:19.631Z,102036.25
2023-04-04T13:03:48.914Z,102033.47
2023-04-04T13:06:19.355Z,102019.13
2023-04-04T13:08:52.886Z,102028.94
2023-04-04T13:14:14.512Z,102011.91
2023-04-04T13:16:42.954Z,102020.94
2023-04-04T13:19:12.624Z,102022.66
2023-04-04T13:21:42.022Z,102011.81
2023-04-04T13:24:09.904Z,102001.31
2023-04-04T13:26:41.240Z,102000.56
2023-04-04T13:29:09.418Z,101992.59
2023-04-04T13:31:39.763Z,101994.38
2023-04-04T13:34:08.544Z,101994.41
2023-04-04T13:36:36.295Z,101994.47
2023-04-04T13:39:04.072Z,101982.91
2023-04-04T13:41:33.930Z,101982.94
2023-04-04T13:44:04.789Z,101975.78
2023-04-04T13:46:35.706Z,101984.75
2023-04-04T13:49:10.929Z,101990.97
2023-04-04T13:51:40.181Z,101975.81
2023-04-04T13:54:09.758Z,101985.63
2023-04-04T13:56:38.661Z,101981.16
2023-04-04T13:59:06.478Z,101966.84
2023-04-04T14:01:34.511Z,101973.06
2023-04-04T14:04:10.139Z,101963.31
2023-04-04T14:06:47.260Z,101967.78
2023-04-04T14:09:15.446Z,101966.94
2023-04-04T14:11:44.629Z,101967.03
2023-04-04T14:14:12.427Z,101965.25
2023-04-04T14:16:40.761Z,101962.59
2023-04-04T14:19:08.729Z,101974.22
2023-04-04T14:21:36.647Z,101967.09
2023-04-04T14:24:06.140Z,101970.63
2023-04-04T14:26:34.766Z,101964.34
2023-04-04T14:29:03.952Z,101959.84
2023-04-04T14:31:33.512Z,101962.53
2023-04-04T14:34:01.932Z,101958.03
2023-04-04T14:36:29.888Z,101964.31
2023-04-04T14:38:58.340Z,101957.16
2023-04-04T14:41:27.671Z,101965.16
2023-04-04T14:43:56.802Z,101952.72
2023-04-04T14:46:25.889Z,101959.81
2023-04-04T14:48:53.830Z,101939.34
2023-04-04T14:51:22.216Z,101944.69
2023-04-04T14:53:52.463Z,101941.16
2023-04-04T14:56:23.230Z,101943.81
2023-04-04T14:58:52.942Z,101941.13
2023-04-04T15:01:23.025Z,101945.50
2023-04-04T15:03:51.361Z,101949.84
2023-04-04T15:06:19.106Z,101944.44
2023-04-04T15:08:47.105Z,101936.44
2023-04-04T15:11:16.494Z,101939.81
2023-04-04T15:13:44.433Z,101934.47
2023-04-04T15:16:13.546Z,101932.63
2023-04-04T15:18:41.630Z,101928.19
2023-04-04T15:21:09.674Z,101924.53
2023-04-04T15:23:37.534Z,101925.38
2023-04-04T15:26:05.593Z,101923.53
2023-04-04T15:28:33.318Z,101927.03
2023-04-04T15:31:02.236Z,101918.16
2023-04-04T15:33:31.354Z,101916.25
2023-04-04T15:35:59.003Z,101914.44
2023-04-04T15:38:26.717Z,101913.47
2023-04-04T15:40:55.362Z,101905.44
2023-04-04T15:43:24.841Z,101903.50
2023-04-04T15:45:52.483Z,101909.53
2023-04-04T15:48:20.661Z,101900.53
2023-04-04T15:50:49.866Z,101906.69
2023-04-04T15:53:17.833Z,101893.44
2023-04-04T15:55:45.665Z,101892.66
2023-04-04T15:58:13.448Z,101893.41
2023-04-04T16:00:41.425Z,101885.44
2023-04-04T16:03:09.456Z,101889.00
2023-04-04T16:05:37.242Z,101888.03
2023-04-04T16:08:06.613Z,101877.41
2023-04-04T16:10:34.738Z,101884.47
2023-04-04T16:13:02.573Z,101874.66
2023-04-04T16:15:30.357Z,101873.72
2023-04-04T16:17:59.876Z,101882.59
2023-04-04T16:20:28.716Z,101875.50
2023-04-04T16:22:56.499Z,101875.44
2023-04-04T16:25:25.644Z,101878.81
2023-04-04T16:27:53.411Z,101876.91
2023-04-04T16:30:21.392Z,101868.84
2023-04-04T16:32:49.449Z,101869.66
2023-04-04T16:35:17.327Z,101872.88
2023-04-04T16:37:45.017Z,101863.84
2023-04-04T16:40:15.186Z,101874.34
2023-04-04T16:42:44.661Z,101859.06
2023-04-04T16:45:12.921Z,101870.31
2023-04-04T16:47:40.659Z,101868.25
2023-04-04T16:50:09.262Z,101860.88
2023-04-04T16:52:36.956Z,101863.34
2023-04-04T16:55:05.256Z,101858.69
2023-04-04T16:57:32.933Z,101863.81
2023-04-04T17:00:01.974Z,101853.00
2023-04-04T17:02:29.691Z,101863.50
2023-04-04T17:04:57.543Z,101849.94
2023-04-04T17:07:25.412Z,101854.06
2023-04-04T17:09:53.144Z,101852.09
2023-04-04T17:12:21.511Z,101855.28
2023-04-04T17:14:49.175Z,101842.63
2023-04-04T17:17:18.387Z,101849.44
2023-04-04T17:19:46.251Z,101843.81
2023-04-04T17:22:13.989Z,101857.69
2023-04-04T17:24:41.754Z,101849.50
2023-04-04T17:27:09.462Z,101852.69
2023-04-04T17:29:37.833Z,101855.94
2023-04-04T17:32:06.350Z,101859.13
2023-04-04T17:34:35.631Z,101851.72
2023-04-04T17:37:03.356Z,101856.69
2023-04-04T17:39:31.378Z,101859.91
2023-04-04T17:41:59.134Z,101857.78
2023-04-04T17:44:27.307Z,101861.00
2023-04-04T17:46:55.408Z,101866.00
2023-04-04T17:49:23.844Z,101865.69
2023-04-04T17:51:53.550Z,101861.88
2023-04-04T17:54:21.649Z,101859.66
2023-04-04T17:56:50.235Z,101861.13
2023-04-04T17:59:18.114Z,101862.50
2023-04-04T18:01:46.838Z,101862.97
2023-04-04T18:04:14.832Z,101863.53
2023-04-04T18:06:42.760Z,101854.31
2023-04-04T18:09:12.679Z,101863.63
2023-04-04T18:11:41.048Z,101864.06
2023-04-04T18:14:08.839Z,101866.25
2023-04-04T18:16:40.355Z,101864.97
2023-04-04T18:19:09.589Z,101868.09
2023-04-04T18:21:37.768Z,101863.34
2023-04-04T18:24:07.422Z,101860.31
2023-04-04T18:26:36.482Z,101861.66
2023-04-04T18:29:04.324Z,101869.19
2023-04-04T18:31:32.132Z,101871.56
2023-04-04T18:34:00.987Z,101865.88
2023-04-04T18:36:28.998Z,101860.25
2023-04-04T18:38:56.729Z,101867.03
2023-04-04T18:41:24.528Z,101864.88
2023-04-04T18:43:53.720Z,101866.38
2023-04-04T18:46:21.501Z,101858.97
2023-04-04T18:48:49.210Z,101864.88
2023-04-04T18:51:17.487Z,101868.94
2023-04-04T18:53:45.267Z,101867.88
2023-04-04T18:56:13.043Z,101859.72
2023-04-04T18:58:40.732Z,101870.84
2023-04-04T19:01:09.980Z,101873.19
2023-04-04T19:03:41.983Z,101867.72
2023-04-04T19:06:12.489Z,101869.13
2023-04-04T19:08:40.980Z,101866.22
2023-04-04T19:11:09.212Z,101865.06
2023-04-04T19:13:37.105Z,101872.84
2023-04-04T19:16:05.914Z,101873.41
2023-04-04T19:18:35.064Z,101869.56
2023-04-04T19:21:02.777Z,101876.28
2023-04-04T19:23:30.747Z,101872.50
2023-04-04T19:26:02.079Z,101877.47
2023-04-04T19:28:29.862Z,101869.34
2023-04-04T19:30:57.650Z,101869.94
2023-04-04T19:33:27.456Z,101874.03
2023-04-04T19:36:07.870Z,101867.59
2023-04-04T19:38:38.158Z,101871.72
2023-04-04T19:41:09.519Z,101860.03
2023-04-04T19:43:37.204Z,101877.31
2023-04-04T19:46:09.148Z,101871.84
2023-04-04T19:48:48.898Z,101875.97
2023-04-04T19:51:38.840Z,101876.53
2023-04-04T19:54:09.259Z,101871.94
2023-04-04T19:56:37.334Z,101869.06
2023-04-04T19:59:09.833Z,101864.34
2023-04-04T20:01:44.593Z,101876.34
2023-04-04T20:04:18.534Z,101874.25
2023-04-04T20:06:48.786Z,101868.81
2023-04-04T20:09:34.578Z,101870.31
2023-04-04T20:12:02.443Z,101877.81
2023-04-04T20:14:30.166Z,101873.25
2023-04-04T20:16:57.918Z,101871.38
2023-04-04T20:19:28.639Z,101866.75
2023-04-04T20:21:57.973Z,101871.75
2023-04-04T20:24:26.058Z,101876.75
2023-04-04T20:26:59.206Z,101874.81
2023-04-04T20:29:28.540Z,101872.94
2023-04-04T20:31:57.814Z,101864.94
2023-04-04T20:34:42.823Z,101862.25
2023-04-04T20:37:14.877Z,101862.97
2023-04-04T20:39:48.226Z,101869.88
2023-04-04T20:42:32.028Z,101862.81
2023-04-04T20:45:01.845Z,101865.44
2023-04-04T20:47:31.395Z,101868.91
2023-04-04T20:49:59.230Z,101868.03
2023-04-04T20:52:28.343Z,101871.53
2023-04-04T20:54:56.856Z,101863.66
2023-04-04T20:57:25.730Z,101865.41
2023-04-04T20:59:53.489Z,101866.38
2023-04-04T21:02:23.404Z,101854.16
2023-04-04T21:04:52.304Z,101867.41
2023-04-04T21:07:40.665Z,101857.88
2023-04-04T21:10:23.921Z,101858.78
2023-04-04T21:12:51.881Z,101856.22
2023-04-04T21:15:24.548Z,101858.78
2023-04-04T21:17:52.580Z,101854.22
2023-04-04T21:20:53.897Z,101849.72
2023-04-04T21:23:31.617Z,101852.41
2023-04-04T21:26:01.228Z,101847.94
2023-04-04T21:28:30.976Z,101852.34
2023-04-04T21:30:58.949Z,101843.41
2023-04-04T21:33:29.733Z,101847.63
2023-04-04T21:35:57.385Z,101836.25
2023-04-04T21:38:30.573Z,101841.47
2023-04-04T21:40:59.827Z,101845.00
2023-04-04T21:43:27.907Z,101838.78
2023-04-04T21:45:56.423Z,101832.72
2023-04-04T21:48:24.460Z,101836.31
2023-04-04T21:50:52.322Z,101833.84
2023-04-04T21:53:21.869Z,101833.00
2023-04-04T21:55:51.004Z,101835.72
2023-04-04T21:58:18.891Z,101830.53
2023-04-04T22:00:46.531Z,101835.88
2023-04-04T22:03:14.733Z,101830.63
2023-04-04T22:05:42.520Z,101827.13
2023-04-04T22:08:10.308Z,101816.63
2023-04-04T22:10:45.378Z,101835.94
2023-04-04T22:13:17.128Z,101822.84
2023-04-04T22:15:47.071Z,101829.81
2023-04-04T22:18:15.803Z,101824.56
2023-04-04T22:20:44.386Z,101815.78
2023-04-04T22:23:13.920Z,101825.38
2023-04-04T22:25:41.798Z,101821.88
2023-04-04T22:28:09.799Z,101814.81
2023-04-04T22:30:42.030Z,101813.06
2023-04-04T22:33:10.061Z,101818.31
2023-04-04T22:35:39.438Z,101813.06
2023-04-04T22:38:07.378Z,101817.50
2023-04-04T22:40:35.155Z,101814.00
2023-04-04T22:43:03.207Z,101810.47
2023-04-04T22:45:32.104Z,101809.66
2023-04-04T22:48:02.208Z,101817.50
2023-04-04T22:50:30.667Z,101808.69
2023-04-04T22:52:58.843Z,101809.56
2023-04-04T22:55:27.576Z,101807.75
2023-04-04T22:57:55.366Z,101803.34
2023-04-04T23:00:23.196Z,101800.72
2023-04-04T23:02:52.035Z,101799.84
2023-04-04T23:05:21.184Z,101791.06
2023-04-04T23:07:53.614Z,101793.69
2023-04-04T23:10:22.675Z,101797.22
2023-04-04T23:12:50.315Z,101793.69
2023-04-04T23:15:18.068Z,101792.78
2023-04-04T23:17:46.581Z,101791.91
2023-04-04T23:20:14.589Z,101787.47
2023-04-04T23:22:43.835Z,101785.63
2023-04-04T23:25:11.904Z,101782.91
2023-04-04T23:27:40.161Z,101771.50
2023-04-04T23:30:09.844Z,101784.50
2023-04-04T23:32:37.514Z,101776.56
2023-04-04T23:35:05.703Z,101784.34
2023-04-04T23:37:33.301Z,101773.69
2023-04-04T23:40:02.261Z,101781.41
2023-04-04T23:42:29.860Z,101786.56
2023-04-04T23:44:59.494Z,101779.47
2023-04-04T23:47:27.307Z,101779.31
2023-04-04T23:49:55.062Z,101778.19
2023-04-04T23:52:22.788Z,101778.03
2023-04-04T23:54:50.581Z,101783.03
2023-04-04T23:57:19.525Z,101774.97
2023-04-04T23:59:47.131Z,101778.25
